Marble Point, Antarctica

7:47 AM GMT on February 13, 2016 (GMT +0000)
Williams Field | | Change Station
CLOSE
Current Station
Airport
Location: Williams Field,
Elevation: 79 ft
Nearby Weather Stations

Elev 79 ft 77.85 °S, 166.67 °E | Updated 1 hour ago

Overcast
Overcast
21 °F
Feels Like 13 °F
N
7
Wind Variable Wind from East

Today
High -- | Low -- °F
--% Chance of Precip.
Yesterday
High -- | Low -- °F
Precip. -- in
Pressure 29.45 in
Visibility 6.2 miles
Clouds Few 3000 ft
Few 7000 ft
Overcast 20000 ft
Windchill 13 °F
Dew Point 7 °F
Humidity 54%
Rainfall 0.00 in
Snow Depth Not available.
0:00 AM 0:00 AM
Waxing Crescent, 28% visible
METAR NZCM 130555Z 10006KT 9999 FEW030 FEW070 OVC200 M06/M14 A2944 RMK SLP973
Pressure 29.45 in
Visibility 6.2 miles
Clouds Few 3000 ft
Few 7000 ft
Overcast 20000 ft
Windchill 13 °F
Dew Point 7 °F
Humidity 54%
Rainfall 0.00 in
Snow Depth Not available.
0:00 AM 0:00 AM
Waxing Crescent, 28% visible
METAR NZCM 130555Z 10006KT 9999 FEW030 FEW070 OVC200 M06/M14 A2944 RMK SLP973

10-Day Weather Forecast

No radar image for this location.
×

Almanac

Astronomy

Feb. 13, 2016 Rise Set
Actual Time
Civil Twilight
Nautical Twilight
Astronomical Twilight
Moon
Length of Visible Light
Length of Day
Tomorrow will be .
, % of the Moon is Illuminated

Today's Extremes

Country Highs Country Lows

Community

WunderPhotos

Upload Photos

1,892,526 photos uploaded!

WunderBlog® & News

Nearby

Air Quality

  Air Quality AQ Index Pollutant
Not available.

Snow Depth

Station Depth Elevation

Earthquake Activity

City Distance Mag. Time & Date
Minimum magnitude displayed is 2.5.

Coastal Water Temperatures

Place Temperature

Stations

Nearby Weather Stations

Station Location Temp. Windchill Dew Point Humidity Wind Precip. Elev Updated Type